»·PEaware :: JBU727 KBNA-KDFW

JBU727 :: KBNA-KDFW

FLIGHT INFORMATION

Flight Status: Arrived
Operator:
JetBlue Airways
More flights by this operator :: More flights under this callsign
Pilot: Anonymous 5323 (5323)
Aircraft: BOEING 727-200
(B722)
More flights by this aircraft type
Origin: KBNA Nashville Intl
United States
Destination: KDFW Dallas-Ft Worth Intl
United States
More flights between these airports :: More routes between these airports
Route: BNA J42 MEM J66 FUZ
File this flight plan on PilotEdge
Remarks:
Altitude:
(Current/Filed)
32,000ft
Speed:
(Current/Filed)
480kts
Departed: 13-Apr-16 02:56 PM
Arrived: 13-Apr-16 04:28 PM
Distance/Time
Traveled:
547nm/1:32
Distance/Time
To Go:
Arrived

Flight Plot

Page will automatically refresh every two minutes.


Map Options




Map Legend


Flown Route
Filed Route
Departure Airport
Arrival Airport
Navaid (VOR, NDB)
Fix

Horizontal Profiles

Position Reports

Time Latitude Longitude Heading Altitude Ground
Speed
13-Apr-16 14:29 36.133804 -86.670088 121 611ft 0kts
13-Apr-16 14:30 36.133804 -86.670088 121 611ft 0kts
13-Apr-16 14:31 36.133804 -86.670088 121 611ft 0kts
13-Apr-16 14:32 36.133804 -86.670088 121 611ft 0kts
13-Apr-16 14:33 36.133804 -86.670088 121 611ft 0kts
13-Apr-16 14:34 36.133804 -86.670088 121 611ft 0kts
13-Apr-16 14:35 36.133804 -86.670088 121 611ft 0kts
13-Apr-16 14:36 36.133804 -86.670088 121 611ft 0kts
13-Apr-16 14:37 36.133804 -86.670088 121 611ft 0kts
13-Apr-16 14:38 36.133804 -86.670088 121 611ft 0kts
13-Apr-16 14:39 36.133804 -86.670088 121 611ft 0kts
13-Apr-16 14:40 36.133804 -86.670088 121 611ft 0kts
13-Apr-16 14:41 36.134275 -86.670481 210 611ft 0kts
13-Apr-16 14:42 36.134275 -86.670481 210 611ft 0kts
13-Apr-16 14:43 36.134275 -86.670481 210 611ft 0kts
13-Apr-16 14:44 36.134455 -86.671768 289 611ft 12kts
13-Apr-16 14:45 36.135710 -86.676404 307 611ft 7kts
13-Apr-16 14:46 36.137606 -86.678246 273 611ft 10kts
13-Apr-16 14:47 36.114607 -86.687691 198 846ft 181kts
13-Apr-16 14:48 36.073229 -86.737184 274 2649ft 264kts
13-Apr-16 14:49 36.082300 -86.827545 278 6025ft 270kts
13-Apr-16 14:50 36.062379 -86.914816 242 8843ft 282kts
13-Apr-16 14:51 36.028880 -87.005056 248 10983ft 311kts
13-Apr-16 14:52 35.994169 -87.111256 248 12972ft 341kts
13-Apr-16 14:53 35.959150 -87.221038 248 15354ft 348kts
13-Apr-16 14:54 35.923340 -87.332859 248 17500ft 355kts
13-Apr-16 14:55 35.886528 -87.447330 248 19446ft 362kts
13-Apr-16 14:56 35.848864 -87.563969 248 21169ft 369kts
13-Apr-16 14:57 35.810580 -87.682050 248 22702ft 375kts
13-Apr-16 14:58 35.771352 -87.802544 248 24113ft 382kts
13-Apr-16 14:59 35.731418 -87.924703 248 25528ft 388kts
13-Apr-16 15:00 35.690836 -88.048323 248 26741ft 393kts
13-Apr-16 15:01 35.649835 -88.173609 248 27866ft 398kts
13-Apr-16 15:02 35.614041 -88.282182 247 28868ft 399kts
13-Apr-16 15:03 35.572765 -88.406526 247 30391ft 389kts
13-Apr-16 15:04 35.532112 -88.528366 247 31581ft 383kts
13-Apr-16 15:05 35.491585 -88.649334 247 32175ft 390kts
13-Apr-16 15:06 35.449072 -88.775683 247 32175ft 411kts
13-Apr-16 15:07 35.402826 -88.907510 247 32179ft 430kts
13-Apr-16 15:08 35.355754 -89.045731 247 32176ft 447kts
13-Apr-16 15:09 35.307294 -89.188012 246 32183ft 461kts
13-Apr-16 15:10 35.257776 -89.332600 246 32177ft 460kts
13-Apr-16 15:11 35.208310 -89.476270 246 32176ft 458kts
13-Apr-16 15:12 35.146884 -89.611009 239 32167ft 456kts
13-Apr-16 15:13 35.090894 -89.749393 246 32176ft 459kts
13-Apr-16 15:14 35.039811 -89.892310 246 32171ft 462kts
13-Apr-16 15:15 34.995784 -90.039096 258 32177ft 463kts
13-Apr-16 15:16 34.976633 -90.194521 258 32181ft 464kts
13-Apr-16 15:17 34.954549 -90.349615 258 32179ft 464kts
13-Apr-16 15:18 34.931903 -90.504256 258 32179ft 463kts
13-Apr-16 15:19 34.909046 -90.658484 258 32179ft 462kts
13-Apr-16 15:20 34.880473 -90.810266 257 32179ft 459kts
13-Apr-16 15:21 34.857317 -90.962506 258 32177ft 459kts
13-Apr-16 15:22 34.837838 -91.093033 259 32172ft 459kts
13-Apr-16 15:23 34.815275 -91.245888 259 32176ft 460kts
13-Apr-16 15:24 34.792471 -91.399627 259 32174ft 460kts
13-Apr-16 15:25 34.769579 -91.552577 259 32173ft 460kts
13-Apr-16 15:26 34.746453 -91.705725 259 32171ft 460kts
13-Apr-16 15:27 34.723153 -91.858666 259 32169ft 460kts
13-Apr-16 15:28 34.699659 -92.011534 259 32170ft 460kts
13-Apr-16 15:29 34.676932 -92.162341 257 32185ft 457kts
13-Apr-16 15:30 34.637930 -92.309369 251 32186ft 457kts
13-Apr-16 15:31 34.598139 -92.456721 253 32185ft 464kts
13-Apr-16 15:32 34.558528 -92.606761 253 32182ft 469kts
13-Apr-16 15:33 34.518459 -92.757779 253 32170ft 472kts
13-Apr-16 15:34 34.478195 -92.908612 253 32160ft 473kts
13-Apr-16 15:35 34.436692 -93.060121 252 32159ft 472kts
13-Apr-16 15:36 34.395706 -93.210576 252 32168ft 472kts
13-Apr-16 15:37 34.354646 -93.361655 252 32167ft 472kts
13-Apr-16 15:38 34.313357 -93.512861 252 32161ft 477kts
13-Apr-16 15:39 34.271162 -93.666546 252 32161ft 485kts
13-Apr-16 15:40 34.228208 -93.822043 252 32144ft 492kts
13-Apr-16 15:41 34.184696 -93.978780 252 32091ft 492kts
13-Apr-16 15:42 34.141106 -94.135144 252 32054ft 494kts
13-Apr-16 15:43 34.097036 -94.292583 251 32006ft 497kts
13-Apr-16 15:44 34.045358 -94.445569 252 32005ft 490kts
13-Apr-16 15:45 34.002596 -94.598381 252 31998ft 471kts
13-Apr-16 15:46 33.961330 -94.744574 252 31996ft 453kts
13-Apr-16 15:47 33.927768 -94.862512 252 32003ft 439kts
13-Apr-16 15:48 33.888673 -94.999209 252 32080ft 448kts
13-Apr-16 15:49 33.847715 -95.143148 252 32132ft 460kts
13-Apr-16 15:50 33.808393 -95.283602 253 32105ft 430kts
13-Apr-16 15:51 33.771178 -95.415638 254 32068ft 405kts
13-Apr-16 15:52 33.735713 -95.540030 252 32136ft 383kts
13-Apr-16 15:53 33.702512 -95.655214 253 31330ft 347kts
13-Apr-16 15:54 33.671116 -95.762734 252 28449ft 340kts
13-Apr-16 15:55 33.638699 -95.873525 250 24661ft 358kts
13-Apr-16 15:56 33.606934 -95.981837 249 22137ft 351kts
13-Apr-16 15:57 33.575047 -96.090294 249 19662ft 345kts
13-Apr-16 15:58 33.543468 -96.197460 248 17345ft 340kts
13-Apr-16 15:59 33.512246 -96.303145 248 15164ft 336kts
13-Apr-16 16:00 33.481030 -96.407835 245 13212ft 331kts
13-Apr-16 16:01 33.405119 -96.459063 206 11277ft 324kts
13-Apr-16 16:02 33.340406 -96.524432 226 10913ft 287kts
13-Apr-16 16:03 33.285881 -96.591684 202 9356ft 281kts
13-Apr-16 16:04 33.214778 -96.628051 202 7913ft 278kts
13-Apr-16 16:05 33.147016 -96.669863 214 6452ft 277kts
13-Apr-16 16:06 33.085724 -96.725334 215 5973ft 274kts
13-Apr-16 16:07 33.026425 -96.779039 215 5975ft 269kts
13-Apr-16 16:08 32.966294 -96.833208 215 5972ft 275kts
13-Apr-16 16:09 32.908035 -96.884686 206 5959ft 282kts
13-Apr-16 16:10 32.843720 -96.883748 172 5194ft 271kts
13-Apr-16 16:11 32.772520 -96.912682 202 3957ft 264kts
13-Apr-16 16:12 32.713767 -96.943304 202 3924ft 197kts
13-Apr-16 16:13 32.681415 -96.985775 288 3001ft 192kts
13-Apr-16 16:14 32.716580 -97.030326 346 2952ft 194kts
13-Apr-16 16:15 32.768808 -97.033076 2 2832ft 175kts
13-Apr-16 16:16 32.798888 -97.032511 3 2209ft 143kts
13-Apr-16 16:17 32.838006 -97.030853 7 1426ft 140kts
13-Apr-16 16:18 32.876595 -97.030063 2 714ft 138kts
13-Apr-16 16:19 32.893946 -97.031319 264 618ft 15kts
13-Apr-16 16:20 32.893552 -97.035414 190 618ft 8kts
13-Apr-16 16:21 32.892428 -97.035651 226 618ft 0kts

Navigation Log

Ident Type
1. KBNA Airport
2. BNA Navaid
3. KAZER Fix
4. DITZL Fix
5. MEM Navaid
6. GEEYY Fix
7. LIT Navaid
8. MEEOW Fix
9. GLOVE Fix
10. DECOD Fix
11. BYP Navaid
12. FUZ Navaid
13. KDFW Airport